Time;durP1;ratioP1;P1;durP2;ratioP2;P2;SDS_P1;SDS_P2;PMS_P1;PMS_P2;Temp;Humidity;BMP_temperature;BMP_pressure;BME280_temperature;BME280_humidity;BME280_pressure;Samples;Min_cycle;Max_cycle;Signal;HPM_P1;HPM_P2
2022/03/27 01:46:59;;;;;;;35.88;15.35;;;;;;;6.89;49.70;95374.28;5060728;23;20057;-84
2022/03/27 01:49:25;;;;;;;34.85;15.70;;;;;;;6.83;48.99;95380.34;4940586;28;20035;-84
2022/03/27 01:51:51;;;;;;;38.95;15.90;;;;;;;7.06;49.07;95374.47;4937108;28;20046;-84
2022/03/27 01:54:19;;;;;;;34.20;15.10;;;;;;;6.97;49.33;95377.59;4938290;28;20071;-84
2022/03/27 01:56:45;;;;;;;37.15;15.55;;;;;;;7.00;48.86;95372.75;4945246;28;20046;-84
2022/03/27 01:59:10;;;;;;;33.40;14.88;;;;;;;7.02;48.74;95375.09;4939647;28;20031;-84
2022/03/27 02:01:37;;;;;;;42.08;16.65;;;;;;;7.03;48.51;95376.69;4953808;28;20043;-84
2022/03/27 02:04:03;;;;;;;34.60;16.13;;;;;;;7.06;48.26;95371.84;4933523;29;20452;-84
2022/03/27 02:06:29;;;;;;;34.72;14.52;;;;;;;7.25;47.72;95378.84;4943972;29;20038;-84
2022/03/27 02:08:55;;;;;;;34.38;15.52;;;;;;;7.33;48.17;95381.94;4944167;29;20142;-83
2022/03/27 02:11:20;;;;;;;37.17;16.40;;;;;;;7.10;48.86;95376.63;4943616;29;20096;-84
2022/03/27 02:13:46;;;;;;;34.78;15.25;;;;;;;7.01;48.29;95373.53;4943064;29;20035;-84
2022/03/27 02:16:11;;;;;;;32.13;14.88;;;;;;;7.01;48.83;95383.94;4943667;29;20090;-84
2022/03/27 02:18:37;;;;;;;34.20;15.15;;;;;;;6.93;49.91;95380.63;4943634;29;20036;-84
2022/03/27 02:21:05;;;;;;;32.28;15.05;;;;;;;6.85;49.01;95386.13;4943492;29;20075;-85
2022/03/27 02:23:31;;;;;;;31.45;14.85;;;;;;;6.78;48.31;95377.63;4927755;29;20031;-84
2022/03/27 02:25:56;;;;;;;36.22;15.05;;;;;;;6.81;48.99;95379.78;4927851;29;20824;-84
2022/03/27 02:28:22;;;;;;;27.77;12.80;;;;;;;6.85;47.26;95378.31;4943453;29;20038;-84
2022/03/27 02:30:48;;;;;;;29.88;13.77;;;;;;;6.95;46.94;95383.00;4943352;29;20114;-84
2022/03/27 02:33:13;;;;;;;34.20;15.15;;;;;;;7.14;47.40;95383.00;4942938;29;20034;-84
2022/03/27 02:35:39;;;;;;;34.38;14.77;;;;;;;7.13;46.86;95381.41;4943286;29;20035;-84
2022/03/27 02:38:05;;;;;;;33.45;15.35;;;;;;;7.18;47.11;95384.97;4927646;29;20191;-84
2022/03/27 02:40:42;;;;;;;30.27;14.10;;;;;;;7.15;47.12;95387.19;4943092;29;20039;-84
2022/03/27 02:43:09;;;;;;;34.50;14.80;;;;;;;7.05;48.42;95379.91;4926448;29;20122;-84
2022/03/27 02:45:34;;;;;;;34.83;14.23;;;;;;;7.02;47.01;95386.34;4927439;29;20440;-84
2022/03/27 02:48:00;;;;;;;38.70;14.73;;;;;;;7.01;46.99;95381.34;4943074;29;20170;-84
2022/03/27 02:50:27;;;;;;;35.25;15.77;;;;;;;7.10;46.58;95376.63;4927086;29;20042;-85
2022/03/27 02:52:53;;;;;;;37.40;14.75;;;;;;;7.13;46.27;95379.59;4942542;29;20467;-85
2022/03/27 02:55:19;;;;;;;32.03;13.15;;;;;;;7.14;46.45;95383.00;4942948;29;20125;-85
2022/03/27 02:57:45;;;;;;;28.75;14.50;;;;;;;7.15;46.23;95379.38;4927293;29;20337;-85
2022/03/27 03:00:11;;;;;;;31.67;14.85;;;;;;;7.21;45.38;95378.50;4942984;29;20047;-85
2022/03/27 03:02:36;;;;;;;26.17;12.18;;;;;;;7.31;44.23;95380.56;4927122;29;20448;-85
2022/03/27 03:05:04;;;;;;;32.50;14.30;;;;;;;7.33;44.99;95388.97;4942481;29;20043;-85
2022/03/27 03:07:30;;;;;;;26.52;12.82;;;;;;;7.32;44.36;95379.56;4926880;29;20040;-85
2022/03/27 03:09:56;;;;;;;31.67;14.25;;;;;;;7.41;44.38;95388.66;4927008;29;20326;-85
2022/03/27 03:12:21;;;;;;;28.55;13.30;;;;;;;7.37;44.56;95382.31;4942631;28;20462;-85
2022/03/27 03:14:47;;;;;;;35.00;15.32;;;;;;;7.51;45.79;95382.91;4942324;29;20039;-85
2022/03/27 03:17:12;;;;;;;37.70;14.95;;;;;;;7.27;45.44;95382.03;4942623;29;20356;-85
2022/03/27 03:19:38;;;;;;;34.58;14.38;;;;;;;7.17;45.63;95383.38;4942484;29;20035;-85
2022/03/27 03:22:04;;;;;;;28.88;13.40;;;;;;;7.12;45.07;95385.81;4926706;29;20325;-85
2022/03/27 03:24:30;;;;;;;28.83;13.20;;;;;;;7.02;46.14;95380.31;4959040;29;20035;-85
2022/03/27 03:26:56;;;;;;;25.80;11.52;;;;;;;6.99;44.88;95383.38;4942354;29;20104;-85
2022/03/27 03:29:22;;;;;;;27.20;13.27;;;;;;;7.03;45.62;95382.72;4942341;29;20039;-85
2022/03/27 03:31:47;;;;;;;33.30;14.20;;;;;;;6.96;46.24;95378.59;4926656;29;20062;-85
2022/03/27 03:34:13;;;;;;;34.95;14.20;;;;;;;6.88;45.65;95382.31;4926133;29;20038;-85
2022/03/27 03:36:38;;;;;;;31.45;13.55;;;;;;;6.79;45.97;95379.97;4942199;29;20035;-84
2022/03/27 03:39:04;;;;;;;24.60;11.95;;;;;;;6.67;46.75;95379.13;4942220;29;20201;-85
2022/03/27 03:41:30;;;;;;;27.08;12.18;;;;;;;6.52;47.00;95384.69;4959140;29;20071;-85
2022/03/27 03:43:56;;;;;;;35.80;13.57;;;;;;;6.46;46.16;95386.34;4926056;29;20443;-84
2022/03/27 03:46:21;;;;;;;26.67;12.32;;;;;;;6.51;45.09;95385.72;4941959;29;20101;-84
2022/03/27 03:48:47;;;;;;;31.60;12.63;;;;;;;6.47;44.46;95385.34;4926316;29;20043;-84
2022/03/27 03:51:12;;;;;;;31.27;12.73;;;;;;;6.50;45.18;95389.31;4926272;29;20163;-85
2022/03/27 03:53:38;;;;;;;34.92;12.85;;;;;;;6.47;45.68;95389.75;4941539;29;20078;-85
2022/03/27 03:56:05;;;;;;;20.77;10.68;;;;;;;6.50;44.17;95384.13;4926104;29;20115;-84
2022/03/27 03:58:31;;;;;;;26.02;11.63;;;;;;;6.58;43.88;95386.41;4942025;29;20441;-84
2022/03/27 04:00:57;;;;;;;24.05;10.05;;;;;;;6.50;43.40;95381.50;4941694;29;20058;-84
2022/03/27 04:03:22;;;;;;;30.25;12.63;;;;;;;6.47;44.46;95389.75;4941425;29;20043;-84
2022/03/27 04:05:48;;;;;;;30.77;11.73;;;;;;;6.39;44.23;95387.41;4926115;29;20035;-84
2022/03/27 04:08:14;;;;;;;22.73;10.77;;;;;;;6.30;44.98;95386.91;4926114;29;20061;-84
2022/03/27 04:10:41;;;;;;;27.52;11.50;;;;;;;6.18;44.73;95398.00;4925790;29;20035;-84
2022/03/27 04:13:07;;;;;;;23.10;10.48;;;;;;;6.08;45.59;95395.91;4925633;29;20086;-84
2022/03/27 04:15:33;;;;;;;22.08;11.07;;;;;;;6.04;45.86;95389.53;4941587;29;20043;-84
2022/03/27 04:18:00;;;;;;;27.00;10.70;;;;;;;6.05;45.04;95395.53;4925928;29;20467;-84
2022/03/27 04:20:26;;;;;;;23.50;11.50;;;;;;;6.05;45.45;95396.31;4941695;29;20035;-84
2022/03/27 04:22:51;;;;;;;31.52;13.70;;;;;;;6.15;46.65;95393.25;4941056;29;20400;-84
2022/03/27 04:25:17;;;;;;;35.20;15.40;;;;;;;6.25;48.26;95395.34;4941447;28;20122;-84
2022/03/27 04:27:42;;;;;;;36.30;15.82;;;;;;;6.32;48.07;95388.28;4954987;28;20162;-84
2022/03/27 04:30:09;;;;;;;34.28;15.70;;;;;;;6.27;48.08;95392.53;4941463;29;20099;-84
2022/03/27 04:32:35;;;;;;;23.77;11.63;;;;;;;6.40;44.08;95386.41;4946792;28;20047;-83
2022/03/27 04:35:01;;;;;;;30.38;10.52;;;;;;;6.55;42.94;95391.28;4958046;28;20046;-85
2022/03/27 04:37:26;;;;;;;24.15;11.27;;;;;;;6.56;42.55;95385.06;4941357;29;20046;-84
2022/03/27 04:39:52;;;;;;;30.95;13.15;;;;;;;6.49;44.43;95385.91;4941382;29;20040;-84
2022/03/27 04:42:18;;;;;;;31.52;12.98;;;;;;;6.37;45.24;95385.03;4925544;29;20046;-85
2022/03/27 04:44:43;;;;;;;27.20;12.68;;;;;;;6.21;45.68;95389.78;4924965;29;20467;-85
2022/03/27 04:47:09;;;;;;;25.85;11.45;;;;;;;6.15;44.53;95393.25;4941184;29;20049;-85
2022/03/27 04:49:34;;;;;;;22.15;10.35;;;;;;;6.06;44.44;95397.09;4941287;29;20341;-84
2022/03/27 04:51:59;;;;;;;25.40;10.82;;;;;;;6.03;43.81;95400.94;4925636;29;20031;-85
2022/03/27 04:54:25;;;;;;;16.80;8.93;;;;;;;5.96;44.30;95402.75;4957915;29;20082;-84
2022/03/27 04:56:51;;;;;;;24.80;10.13;;;;;;;5.91;43.65;95397.41;4958295;29;20062;-84
2022/03/27 04:59:17;;;;;;;25.65;11.60;;;;;;;5.95;44.69;95401.19;4941360;29;20035;-84
2022/03/27 05:01:42;;;;;;;26.42;11.77;;;;;;;5.86;43.97;95403.25;4941154;29;20046;-84
2022/03/27 05:04:09;;;;;;;23.20;10.57;;;;;;;5.92;43.24;95401.59;4925059;29;20429;-84
2022/03/27 05:06:34;;;;;;;20.23;10.30;;;;;;;5.98;42.19;95408.53;4958811;28;20043;-84
2022/03/27 05:09:00;;;;;;;23.45;10.50;;;;;;;5.98;42.36;95405.94;4929196;29;20039;-85
2022/03/27 05:11:28;;;;;;;26.60;9.85;;;;;;;6.12;40.92;95403.28;4944757;29;20062;-84
2022/03/27 05:13:54;;;;;;;20.60;10.18;;;;;;;6.17;41.57;95406.81;4944599;29;20039;-84
2022/03/27 05:16:19;;;;;;;24.27;9.40;;;;;;;6.14;40.50;95415.06;4928967;29;20043;-84
2022/03/27 05:18:45;;;;;;;24.75;10.25;;;;;;;6.20;41.18;95410.81;4961819;29;20035;-84
2022/03/27 05:21:10;;;;;;;21.70;9.57;;;;;;;6.17;40.47;95412.03;4944523;29;20164;-84
2022/03/27 05:23:36;;;;;;;24.77;10.15;;;;;;;6.09;40.52;95414.88;4928868;29;20034;-84
2022/03/27 05:26:02;;;;;;;26.00;10.85;;;;;;;6.17;42.00;95424.22;4929001;29;20463;-84
2022/03/27 05:28:27;;;;;;;28.88;11.73;;;;;;;6.29;42.13;95419.94;4944581;29;20042;-84
2022/03/27 05:30:55;;;;;;;26.45;11.18;;;;;;;6.38;41.30;95422.28;4961647;29;20043;-84
2022/03/27 05:33:20;;;;;;;25.25;11.60;;;;;;;6.37;44.50;95421.47;4944612;29;20416;-84
2022/03/27 05:35:46;;;;;;;27.88;11.50;;;;;;;6.29;43.76;95419.94;4944417;29;20118;-84
2022/03/27 05:38:11;;;;;;;31.67;11.35;;;;;;;6.23;43.89;95428.59;4943452;29;20098;-84
2022/03/27 05:40:37;;;;;;;31.67;12.95;;;;;;;6.18;45.91;95429.25;4928228;29;20047;-85
2022/03/27 05:43:02;;;;;;;26.67;12.13;;;;;;;6.10;46.98;95433.91;4943930;29;20051;-84
2022/03/27 05:45:28;;;;;;;27.88;12.50;;;;;;;6.28;44.30;95433.19;4944153;29;20043;-84
2022/03/27 05:47:54;;;;;;;28.90;11.90;;;;;;;6.43;44.78;95433.66;4961265;29;20069;-85
2022/03/27 05:50:22;;;;;;;29.90;12.25;;;;;;;6.44;45.31;95435.22;4961276;29;20123;-83
2022/03/27 05:52:48;;;;;;;28.13;12.38;;;;;;;6.64;43.05;95432.44;4944234;29;20039;-84
2022/03/27 05:55:14;;;;;;;20.75;9.73;;;;;;;6.69;41.51;95433.59;4944017;29;20392;-84
2022/03/27 05:57:40;;;;;;;19.60;8.95;;;;;;;6.97;39.84;95424.50;4944139;29;20039;-86
2022/03/27 06:00:07;;;;;;;18.42;8.98;;;;;;;6.99;39.22;95431.09;4943755;29;20039;-88
2022/03/27 06:02:33;;;;;;;23.88;9.80;;;;;;;7.05;42.03;95426.81;4953309;28;20126;-85
2022/03/27 06:04:58;;;;;;;25.45;11.73;;;;;;;7.26;42.17;95438.59;4946901;28;20081;-84
2022/03/27 06:07:24;;;;;;;19.35;9.55;;;;;;;7.44;39.45;95431.75;4963003;28;20039;-85
2022/03/27 06:09:51;;;;;;;19.38;9.23;;;;;;;7.36;41.02;95435.47;4943854;29;20035;-85
2022/03/27 06:12:23;;;;;;;19.58;8.93;;;;;;;7.43;41.32;95435.38;4959711;29;20035;-85
2022/03/27 06:14:49;;;;;;;19.50;8.73;;;;;;;7.49;41.12;95440.50;4929696;29;20049;-85
2022/03/27 06:17:15;;;;;;;24.05;11.00;;;;;;;7.54;41.67;95445.06;4961025;29;20425;-85
2022/03/27 06:19:41;;;;;;;34.08;12.40;;;;;;;7.52;42.61;95449.69;4959910;28;20043;-86
2022/03/27 06:22:07;;;;;;;28.88;12.23;;;;;;;7.52;43.43;95447.06;4962845;28;20066;-86
2022/03/27 06:24:32;;;;;;;26.77;11.43;;;;;;;7.52;44.25;95454.13;4974089;28;20085;-86
2022/03/27 06:26:58;;;;;;;22.83;10.75;;;;;;;7.62;42.80;95444.75;4960419;29;20042;-87
2022/03/27 06:29:23;;;;;;;32.08;11.65;;;;;;;7.71;42.57;95455.66;4960424;29;20064;-86
2022/03/27 06:31:49;;;;;;;26.52;11.05;;;;;;;7.72;45.91;95459.84;4943304;29;20039;-86
2022/03/27 06:34:15;;;;;;;22.42;9.20;;;;;;;7.81;41.53;95456.94;4946111;28;20042;-85
2022/03/27 06:36:42;;;;;;;21.70;10.98;;;;;;;8.00;41.40;95460.28;4962399;28;20042;-86
2022/03/27 06:39:07;;;;;;;22.45;9.20;;;;;;;8.25;43.73;95454.06;4962601;28;20110;-86
2022/03/27 06:41:33;;;;;;;21.00;9.70;;;;;;;8.37;41.89;95454.09;4946530;28;20054;-87
2022/03/27 06:43:59;;;;;;;18.45;9.02;;;;;;;8.39;43.16;95452.06;4946769;28;20050;-86
2022/03/27 06:46:24;;;;;;;22.45;9.95;;;;;;;8.54;39.90;95452.44;4979384;28;20038;-86
2022/03/27 06:48:50;;;;;;;22.80;9.50;;;;;;;8.71;39.94;95459.59;4946472;28;20039;-87
2022/03/27 06:51:16;;;;;;;19.77;9.68;;;;;;;8.96;39.71;95448.09;4946686;28;20043;-87
2022/03/27 06:53:43;;;;;;;19.25;9.43;;;;;;;9.13;40.21;95456.03;4962071;28;20091;-87
2022/03/27 06:56:09;;;;;;;20.45;9.73;;;;;;;9.28;40.40;95455.53;4962751;28;20090;-87
2022/03/27 06:58:34;;;;;;;25.08;11.75;;;;;;;9.16;41.01;95458.19;4962373;28;20363;-86
2022/03/27 07:03:47;;;;;;;21.10;10.40;;;;;;;9.55;39.75;95457.59;4964622;28;20158;-89
2022/03/27 07:06:16;;;;;;;24.00;10.73;;;;;;;9.56;39.06;95465.22;4956381;29;20448;-87
2022/03/27 07:08:42;;;;;;;20.83;9.85;;;;;;;9.91;39.16;95463.50;4927543;29;20035;-86
2022/03/27 07:11:08;;;;;;;24.23;10.38;;;;;;;10.14;39.73;95464.38;4942711;29;20090;-87
2022/03/27 07:13:34;;;;;;;19.85;9.93;;;;;;;10.44;45.54;95460.69;4926717;29;20330;-86
2022/03/27 07:15:59;;;;;;;23.30;9.77;;;;;;;10.31;43.76;95457.31;4942655;29;20157;-86
2022/03/27 07:18:25;;;;;;;24.23;11.05;;;;;;;10.09;42.13;95462.47;4942533;29;20131;-86
2022/03/27 07:20:50;;;;;;;18.15;8.95;;;;;;;10.54;42.56;95463.47;4958396;29;20046;-87
2022/03/27 07:23:18;;;;;;;20.48;10.32;;;;;;;10.88;46.71;95467.88;4959456;29;20131;-87
2022/03/27 07:25:49;;;;;;;18.30;9.80;;;;;;;11.09;43.72;95466.31;4942712;29;20035;-87
2022/03/27 07:28:15;;;;;;;19.25;9.30;;;;;;;11.01;44.37;95477.22;4958555;29;20046;-87
2022/03/27 07:30:42;;;;;;;20.67;9.57;;;;;;;11.06;44.85;95468.63;4957916;28;20132;-86
2022/03/27 07:33:08;;;;;;;22.27;10.85;;;;;;;10.69;43.34;95467.34;4942021;29;20039;-86
2022/03/27 07:35:34;;;;;;;24.33;10.25;;;;;;;10.86;44.48;95483.06;4926784;29;20378;-86
2022/03/27 07:38:00;;;;;;;25.02;10.27;;;;;;;11.33;43.37;95471.31;4942256;29;20039;-87
2022/03/27 07:40:27;;;;;;;22.65;10.80;;;;;;;10.69;44.24;95472.59;4926425;29;20070;-87
2022/03/27 07:42:55;;;;;;;21.75;10.65;;;;;;;10.91;44.13;95477.09;4926721;29;20047;-89
2022/03/27 07:45:26;;;;;;;19.63;10.65;;;;;;;11.29;44.61;95471.03;4958016;29;20042;-87
2022/03/27 07:47:53;;;;;;;23.67;10.82;;;;;;;11.54;41.32;95474.19;4958148;29;20043;-86
2022/03/27 07:50:20;;;;;;;21.85;10.32;;;;;;;11.63;41.64;95472.72;4935292;29;20046;-88
2022/03/27 07:52:46;;;;;;;19.42;9.93;;;;;;;11.71;42.05;95476.75;4941910;29;20118;-87
2022/03/27 07:55:14;;;;;;;22.60;10.68;;;;;;;12.07;41.76;95476.31;4942005;29;20133;-87
2022/03/27 07:57:41;;;;;;;24.52;10.50;;;;;;;12.38;38.55;95476.59;4940965;29;20047;-87
2022/03/27 08:00:10;;;;;;;18.45;9.93;;;;;;;12.58;39.32;95481.97;4926574;29;20039;-87
2022/03/27 08:02:38;;;;;;;18.92;10.07;;;;;;;12.49;40.01;95480.06;4926656;29;20043;-87
2022/03/27 08:05:05;;;;;;;21.25;9.82;;;;;;;12.83;38.19;95474.50;4958806;29;20039;-88
2022/03/27 08:07:33;;;;;;;22.17;9.95;;;;;;;12.04;39.28;95482.06;4959103;29;20130;-89
2022/03/27 08:10:01;;;;;;;18.70;9.40;;;;;;;12.53;37.86;95471.44;4926340;29;20047;-87
2022/03/27 08:12:30;;;;;;;16.80;9.65;;;;;;;13.03;37.01;95475.69;4944963;28;20031;-87
2022/03/27 08:14:56;;;;;;;19.92;9.93;;;;;;;12.83;40.48;95480.56;4961146;28;20049;-86
2022/03/27 08:17:21;;;;;;;23.23;9.82;;;;;;;12.68;39.11;95491.00;4961066;28;20357;-87
2022/03/27 08:19:49;;;;;;;16.92;9.23;;;;;;;13.18;39.10;95485.47;4960980;28;20043;-87
2022/03/27 08:22:14;;;;;;;18.08;9.90;;;;;;;13.26;39.29;95485.00;4944734;28;20047;-87
2022/03/27 08:24:40;;;;;;;19.30;9.98;;;;;;;13.19;37.85;95493.13;4960916;28;20073;-87
2022/03/27 08:27:07;;;;;;;21.30;9.98;;;;;;;13.11;37.78;95496.22;4960847;28;20432;-87
2022/03/27 08:29:37;;;;;;;24.08;10.13;;;;;;;13.15;36.13;95484.19;4961007;28;20047;-87
2022/03/27 08:32:05;;;;;;;24.73;9.35;;;;;;;13.12;37.05;95485.47;4960838;28;20041;-86
2022/03/27 08:34:32;;;;;;;29.95;14.70;;;;;;;13.65;37.13;95482.03;4960484;28;20042;-86
2022/03/27 08:36:59;;;;;;;21.83;9.27;;;;;;;14.08;34.97;95488.97;4944526;28;20042;-86
2022/03/27 08:39:25;;;;;;;16.30;7.70;;;;;;;14.40;30.97;95487.94;4944656;28;20507;-86
2022/03/27 08:41:54;;;;;;;17.42;8.95;;;;;;;14.24;29.35;95485.31;4946276;28;20121;-91
2022/03/27 08:44:22;;;;;;;19.65;8.10;;;;;;;14.09;27.99;95490.56;4968772;28;20042;-91
2022/03/27 08:46:50;;;;;;;17.73;8.48;;;;;;;14.08;28.37;95486.34;4949409;28;20043;-87
2022/03/27 08:49:37;;;;;;;16.95;8.20;;;;;;;14.56;30.62;95496.63;4964619;28;20093;-86
2022/03/27 08:52:26;;;;;;;19.05;8.20;;;;;;;13.98;30.06;95497.63;4981656;28;20038;-86
2022/03/27 08:55:00;;;;;;;16.52;7.70;;;;;;;14.05;29.63;95492.09;4981244;28;20049;-86
2022/03/27 08:57:31;;;;;;;16.67;9.10;;;;;;;14.37;28.41;95499.03;4975230;28;20045;-83
2022/03/27 08:59:57;;;;;;;14.63;7.82;;;;;;;14.59;29.74;95490.84;4961989;28;20050;-83
2022/03/27 09:02:24;;;;;;;20.05;9.63;;;;;;;14.37;28.73;95486.63;4944398;29;20051;-83
2022/03/27 09:04:53;;;;;;;16.38;9.02;;;;;;;14.18;29.38;95491.59;4944317;29;20055;-83
2022/03/27 09:07:27;;;;;;;17.65;9.25;;;;;;;14.36;28.57;95484.25;4944802;29;20039;-82
2022/03/27 09:09:53;;;;;;;21.67;10.68;;;;;;;14.44;28.13;95488.22;4961842;28;20039;-82
2022/03/27 09:12:20;;;;;;;21.98;10.48;;;;;;;14.91;28.14;95483.69;4944290;29;20038;-83
2022/03/27 09:14:45;;;;;;;23.20;10.23;;;;;;;14.80;29.33;95489.00;4944173;29;20039;-83
2022/03/27 09:17:11;;;;;;;19.63;10.23;;;;;;;14.36;29.64;95490.31;4944872;28;20062;-83
2022/03/27 09:19:39;;;;;;;16.42;10.27;;;;;;;14.53;29.79;95490.06;4944641;29;20117;-83
2022/03/27 09:22:23;;;;;;;16.35;8.55;;;;;;;15.09;30.60;95487.63;4962089;28;20043;-82
2022/03/27 09:24:58;;;;;;;18.20;9.52;;;;;;;14.96;30.70;95492.41;4944181;29;20035;-82
2022/03/27 09:27:34;;;;;;;17.58;9.20;;;;;;;14.98;30.51;95482.34;4928542;28;20073;-83
2022/03/27 09:30:07;;;;;;;21.27;10.18;;;;;;;15.64;31.08;95489.53;4944481;29;20061;-83
2022/03/27 09:32:45;;;;;;;20.17;9.07;;;;;;;15.98;28.60;95483.56;4961527;29;20086;-83
2022/03/27 09:35:16;;;;;;;18.92;9.20;;;;;;;14.89;32.24;95493.72;4961499;28;20397;-83
2022/03/27 09:37:45;;;;;;;17.55;9.35;;;;;;;15.86;30.44;95483.88;4944443;29;20392;-83
2022/03/27 09:40:12;;;;;;;18.40;9.80;;;;;;;15.55;29.32;95484.03;4944486;28;20356;-83
2022/03/27 09:42:39;;;;;;;18.27;10.13;;;;;;;15.18;30.97;95488.66;4944138;29;20039;-83
2022/03/27 09:45:23;;;;;;;22.77;10.48;;;;;;;15.20;28.66;95491.00;4943724;29;20102;-83
2022/03/27 09:47:50;;;;;;;20.33;10.85;;;;;;;14.83;29.66;95488.47;4928623;29;20130;-83
2022/03/27 09:50:38;;;;;;;23.35;10.77;;;;;;;14.57;30.97;95485.03;4961124;29;20404;-83
2022/03/27 09:53:20;;;;;;;20.00;9.65;;;;;;;14.40;33.36;95483.44;4943306;29;20039;-83
2022/03/27 09:55:48;;;;;;;15.88;8.90;;;;;;;14.80;32.96;95488.19;4961096;28;20122;-83
2022/03/27 09:58:15;;;;;;;20.13;9.88;;;;;;;14.63;34.00;95485.81;4928200;29;20043;-83
2022/03/27 10:00:42;;;;;;;20.45;10.43;;;;;;;14.84;34.54;95484.78;4928280;28;20043;-83
2022/03/27 10:03:11;;;;;;;22.52;10.25;;;;;;;14.75;32.03;95489.00;4928065;29;20090;-83
2022/03/27 10:05:37;;;;;;;21.45;10.32;;;;;;;15.43;33.36;95489.63;4927960;29;20039;-83
2022/03/27 10:08:03;;;;;;;19.83;10.50;;;;;;;14.91;32.39;95491.59;4927925;29;20448;-83
2022/03/27 10:10:28;;;;;;;16.67;9.73;;;;;;;16.10;31.18;95477.97;4943734;29;20042;-83
2022/03/27 10:12:56;;;;;;;22.88;11.85;;;;;;;15.85;31.49;95477.00;4943158;29;20066;-83
2022/03/27 10:15:25;;;;;;;19.75;11.13;;;;;;;15.97;34.72;95474.84;4960698;28;20035;-83
2022/03/27 10:17:55;;;;;;;21.50;11.13;;;;;;;16.40;33.14;95484.84;4943680;28;20035;-83
2022/03/27 10:20:21;;;;;;;22.45;11.95;;;;;;;16.29;32.34;95482.56;4943427;29;20039;-83
2022/03/27 10:22:52;;;;;;;24.48;11.57;;;;;;;16.51;33.62;95485.59;4943214;29;20027;-83
2022/03/27 10:25:18;;;;;;;24.27;12.48;;;;;;;15.97;29.87;95485.44;4943411;29;20408;-83
2022/03/27 10:27:47;;;;;;;26.90;12.52;;;;;;;16.21;27.86;95482.13;4943321;29;20039;-83
2022/03/27 10:30:15;;;;;;;24.02;12.80;;;;;;;15.95;31.21;95477.00;4943425;29;20043;-83
2022/03/27 10:32:42;;;;;;;23.13;12.75;;;;;;;15.83;31.23;95472.00;4943426;29;20528;-83
2022/03/27 10:35:44;;;;;;;20.45;11.70;;;;;;;16.63;30.96;95482.56;4942831;29;20035;-83
2022/03/27 10:38:18;;;;;;;22.63;11.68;;;;;;;16.31;29.73;95475.97;4943293;29;20031;-83
2022/03/27 10:40:58;;;;;;;25.48;12.45;;;;;;;16.00;30.07;95470.88;4943391;29;20043;-83
2022/03/27 10:43:50;;;;;;;22.67;12.10;;;;;;;16.01;30.25;95469.03;4927096;29;20035;-83
2022/03/27 10:46:19;;;;;;;24.73;12.45;;;;;;;15.64;31.33;95471.06;4943157;29;20412;-83
2022/03/27 10:48:45;;;;;;;27.25;12.95;;;;;;;15.55;31.65;95457.63;4943045;28;20038;-83
2022/03/27 10:51:26;;;;;;;23.45;12.63;;;;;;;15.79;31.48;95463.03;4942973;29;20035;-83
2022/03/27 10:54:10;;;;;;;22.40;12.07;;;;;;;16.58;32.72;95474.69;4942409;29;20047;-83
2022/03/27 10:56:43;;;;;;;28.85;13.23;;;;;;;16.42;33.94;95468.72;4942953;29;20429;-83
2022/03/27 10:59:26;;;;;;;31.60;13.27;;;;;;;16.28;31.68;95462.50;4942991;28;20082;-85
2022/03/27 11:01:57;;;;;;;24.15;13.18;;;;;;;16.37;32.77;95456.31;4961295;28;20047;-85
2022/03/27 11:04:34;;;;;;;30.17;12.80;;;;;;;16.80;32.21;95460.19;4931358;28;20125;-81
2022/03/27 11:07:15;;;;;;;27.63;13.68;;;;;;;16.08;31.56;95451.00;4979204;28;20133;-81
2022/03/27 11:09:44;;;;;;;22.33;12.77;;;;;;;15.81;31.92;95447.69;4979177;28;20070;-81
2022/03/27 11:12:25;;;;;;;25.05;13.13;;;;;;;16.01;33.30;95447.88;4966727;28;20332;-81
2022/03/27 11:14:58;;;;;;;31.45;12.77;;;;;;;16.60;33.15;95453.22;4961414;28;20046;-81
2022/03/27 11:17:33;;;;;;;29.40;14.57;;;;;;;15.86;32.03;95449.53;4961705;28;20182;-81
2022/03/27 11:19:59;;;;;;;26.77;13.30;;;;;;;16.60;32.09;95453.22;4979137;28;20121;-81
2022/03/27 11:22:51;;;;;;;27.20;14.02;;;;;;;16.11;31.21;95450.44;4974566;28;20062;-81
2022/03/27 11:25:32;;;;;;;25.08;13.88;;;;;;;16.58;32.49;95447.44;4959484;29;20042;-81
2022/03/27 11:28:01;;;;;;;26.60;14.05;;;;;;;16.43;31.37;95448.38;4979681;28;20038;-81
2022/03/27 11:30:26;;;;;;;34.55;15.63;;;;;;;16.32;32.25;95445.00;4998078;28;20076;-81
2022/03/27 11:33:29;;;;;;;29.17;14.50;;;;;;;16.24;32.56;95446.38;4961821;28;20074;-81
2022/03/27 11:36:11;;;;;;;29.40;14.80;;;;;;;16.75;33.05;95444.38;4960256;28;20078;-81
2022/03/27 11:38:46;;;;;;;29.88;15.30;;;;;;;17.12;32.41;95439.50;4980670;28;20034;-81
2022/03/27 11:41:23;;;;;;;28.23;15.45;;;;;;;17.24;30.55;95435.38;4980193;28;20038;-81
2022/03/27 11:43:50;;;;;;;33.90;15.57;;;;;;;16.82;30.24;95437.69;4977601;28;20041;-81
2022/03/27 11:46:25;;;;;;;27.70;14.50;;;;;;;17.22;32.60;95444.69;4978837;28;20165;-81
2022/03/27 11:48:58;;;;;;;28.35;14.55;;;;;;;17.49;32.04;95441.44;4984272;28;20065;-81
2022/03/27 11:51:24;;;;;;;33.33;15.57;;;;;;;16.96;30.67;95435.13;4961962;28;20096;-81
2022/03/27 11:53:55;;;;;;;28.23;14.13;;;;;;;17.90;31.35;95432.13;4979824;28;20116;-81
2022/03/27 11:56:21;;;;;;;33.55;16.17;;;;;;;17.72;30.10;95428.44;4980225;28;20038;-81
2022/03/27 11:59:12;;;;;;;30.83;16.30;;;;;;;16.96;30.60;95434.38;4964276;28;20077;-82
2022/03/27 12:01:37;;;;;;;29.23;15.70;;;;;;;16.82;30.69;95431.59;4980112;28;20042;-81
2022/03/27 12:04:06;;;;;;;29.02;14.90;;;;;;;17.00;31.69;95426.66;4979494;28;20176;-81
2022/03/27 12:06:31;;;;;;;27.83;15.70;;;;;;;17.27;30.48;95425.28;4980437;28;20026;-81
2022/03/27 12:08:58;;;;;;;35.67;15.95;;;;;;;17.83;30.69;95418.47;4979958;28;20088;-81
2022/03/27 12:11:26;;;;;;;30.08;16.70;;;;;;;17.82;29.97;95416.91;4964203;28;20510;-81
2022/03/27 12:13:52;;;;;;;32.50;15.85;;;;;;;17.75;31.32;95416.47;4962237;28;20125;-82
2022/03/27 12:16:23;;;;;;;32.03;15.98;;;;;;;17.21;30.44;95416.63;4971348;28;20034;-81
2022/03/27 12:18:50;;;;;;;35.17;16.73;;;;;;;16.81;30.77;95422.88;4963781;28;20069;-81
2022/03/27 12:21:20;;;;;;;33.10;16.45;;;;;;;16.80;30.92;95421.28;4958193;28;20050;-82
2022/03/27 12:23:55;;;;;;;34.67;17.40;;;;;;;16.42;32.71;95421.13;4963701;28;20034;-82
2022/03/27 12:31:56;;;;;;;39.22;19.63;;;;;;;16.59;32.69;95411.97;4962950;28;20462;-83
2022/03/27 12:34:22;;;;;;;37.60;18.27;;;;;;;16.99;31.61;95407.34;4975449;28;20043;-84
2022/03/27 12:37:15;;;;;;;33.85;18.50;;;;;;;16.60;31.75;95406.41;4963541;28;20073;-84
2022/03/27 12:39:50;;;;;;;37.80;18.70;;;;;;;16.30;32.77;95402.19;4962124;28;20042;-82
2022/03/27 12:42:37;;;;;;;39.75;18.40;;;;;;;16.49;32.87;95403.06;4960011;28;20057;-82
2022/03/27 12:45:33;;;;;;;38.50;20.02;;;;;;;17.14;31.85;95406.38;4983131;28;20346;-81
2022/03/27 12:47:59;;;;;;;41.40;19.65;;;;;;;16.69;32.41;95396.00;4979621;28;20038;-82
2022/03/27 12:50:38;;;;;;;40.72;18.33;;;;;;;16.24;34.69;95393.50;4959745;28;20038;-82
2022/03/27 12:53:09;;;;;;;42.17;18.95;;;;;;;17.21;33.39;95398.88;4959661;28;20057;-83
2022/03/27 12:55:52;;;;;;;42.00;19.95;;;;;;;17.00;32.35;95385.09;4944590;28;20034;-81
2022/03/27 12:58:34;;;;;;;45.50;19.48;;;;;;;16.44;32.72;95395.19;4960089;28;20034;-82
2022/03/27 13:01:16;;;;;;;40.55;18.73;;;;;;;15.88;33.21;95391.91;4977414;28;20062;-82
2022/03/27 13:04:08;;;;;;;42.80;20.50;;;;;;;16.16;33.48;95389.59;4959743;28;20355;-81
2022/03/27 13:06:39;;;;;;;48.50;22.50;;;;;;;15.40;34.27;95384.53;4977775;28;20030;-82
2022/03/27 13:09:08;;;;;;;48.00;21.20;;;;;;;15.27;34.01;95376.16;4960315;28;20031;-81
2022/03/27 13:11:41;;;;;;;50.10;21.48;;;;;;;15.23;34.13;95376.97;4944321;28;20038;-81
2022/03/27 13:14:07;;;;;;;;;;;;;;;15.36;36.18;95372.94;4977449;28;20038;-81
2022/03/27 13:16:45;;;;;;;48.53;22.60;;;;;;;15.70;34.19;95374.84;4967594;28;19914;-81
2022/03/27 13:19:21;;;;;;;43.95;21.52;;;;;;;15.84;34.36;95375.81;4997321;28;20363;-81
2022/03/27 13:21:52;;;;;;;52.80;23.70;;;;;;;15.93;34.44;95373.41;4979257;28;20040;-81
2022/03/27 13:24:22;;;;;;;47.67;23.10;;;;;;;16.21;35.47;95371.06;4978942;28;20065;-81
2022/03/27 13:26:50;;;;;;;42.65;22.02;;;;;;;16.56;33.66;95362.28;4979415;28;20449;-81